Каролино

Карта отелей и гостиниц, располагающихся рядом с аэропортом Каролино :

Каролино
Гродно
53° 37' 58.6812" N, 23° 44' 10.32" E
Код аэродрома ИКАО
UMNG
Код аэродрома RU
УМНГ
Координаты
N53.63297° E023.73620°
Превышение над уровнем моря
120
Основная полоса
05/23
Курс магнитный
050,2/230,2
Длина основной ВПП
760
Ширина основной ВПП
50
Покрытие основной ВПП
Нетвёрдое (грунт)
Освещение ВПП
Нет
Тип: 
Аэродром
Класс аэродрома: 
Принадлежность: 
ДОСААФ
Статус: 
Действующий
Сайт: 
http://skydive-grodno.by/
E-mail аэродрома: 
AIRCLUBGRODNO@BK.RU, 1759410@mail.ru
Страна: 
Беларусь
Регион: 
Город: 
Гродно
Дополнительная информация: 
Осуществляются прыжки с парашютом весной и летом.

Найти трансфер

С помощью этой формы Вы можете найти трансфер из аэропорта Каролино в город, аэропорт или вокзал:

Погода в аэропортах:

Авиационная погода в Ханты-Мансийске

Регион: 
Погода METAR: 
USHH 221800Z 16002MPS 9999 -SN BKN021 M12/M14 Q1028 R06/390037 TEMPO 3000 -SN BKN010
Время наблюдения
2022-01-22T18:00:00Z
Температура C
-12.0
Точка росы
-14.0
Направление ветра
160
Скорость ветра (узлы)
4
Метео видимость
6.21
Облачность
BKN
Нижняя граница облачности (футы)
2100
Явления погоды
-SN
Условия полета
MVFR
Аэропорт подробнее: 
BKN – значительная (рассеянная, разорванная) облачность;
-SN – слабый снег;

Авиационная погода в Нукусе

Регион: 
Погода METAR: 
UTNN 221800Z 12004KT 4500 BR OVC002 M06/M07 Q1027 R33/CLRD60 NOSIG RMK BASE230
Время наблюдения
2022-01-22T18:00:00Z
Температура C
-6.0
Точка росы
-7.0
Направление ветра
120
Скорость ветра (узлы)
4
Метео видимость
2.8
Облачность
OVC
Нижняя граница облачности (футы)
200
Явления погоды
BR
Условия полета
LIFR
OVC – сплошная облачность;
BR – дымка (видимость от 1 до 9 км);

Авиационная погода в аэропорту Алыкель

Регион: 
Погода METAR: 
UOOO 221800Z 20013MPS 0300 0250S R19/0800N SN BLSN OVC008 M10/M11 Q1017 R19/451033 NOSIG RMK QFE746/0995
Время наблюдения
2022-01-22T18:00:00Z
Температура C
-10.0
Точка росы
-11.0
Направление ветра
200
Скорость ветра (узлы)
25
Метео видимость
0.19
Облачность
OVC
Нижняя граница облачности (футы)
800
Явления погоды
BLSN SN
Условия полета
LIFR
Аэропорт подробнее: 
OVC – сплошная облачность;
BLSN – метель низовая или общая;

Авиационная погода в Череповце

Регион: 
Погода METAR: 
ULWC 221800Z 06002MPS 9999 -SN BKN010 M09/M11 Q1018 R03/490536 NOSIG RMK QFE753/1005
Время наблюдения
2022-01-22T18:00:00Z
Температура C
-9.0
Точка росы
-11.0
Направление ветра
60
Скорость ветра (узлы)
4
Метео видимость
6.21
Облачность
BKN
Нижняя граница облачности (футы)
1000
Явления погоды
-SN
Условия полета
MVFR
Аэропорт подробнее: 
BKN – значительная (рассеянная, разорванная) облачность;
-SN – слабый снег;